createdAt,value
2017-02-18T00:06:17.645Z,10
2017-02-18T00:16:17.701Z,9
2017-02-18T00:26:17.808Z,9
2017-02-18T00:36:17.879Z,8
2017-02-18T00:46:31.428Z,9
2017-02-18T00:56:17.619Z,10
2017-02-18T01:06:17.819Z,10
2017-02-18T01:16:17.501Z,10
2017-02-18T01:26:17.628Z,10
2017-02-18T01:36:17.799Z,11
2017-02-18T01:46:17.529Z,11
2017-02-18T01:56:17.530Z,11
2017-02-18T02:06:17.619Z,12
2017-02-18T02:16:18.254Z,12
2017-02-18T02:26:17.992Z,11
2017-02-18T02:36:17.683Z,12
2017-02-18T02:46:17.922Z,13
2017-02-18T02:56:18.276Z,14
2017-02-18T03:06:17.559Z,13
2017-02-18T03:16:19.901Z,13
2017-02-18T03:26:17.582Z,15
2017-02-18T03:36:17.894Z,14
2017-02-18T03:46:18.470Z,14
2017-02-18T03:56:17.986Z,15
2017-02-18T04:06:17.803Z,15
2017-02-18T04:16:17.801Z,14
2017-02-18T04:26:17.603Z,13
2017-02-18T04:36:17.601Z,14
2017-02-18T04:46:17.708Z,14
2017-02-18T04:56:17.836Z,14
2017-02-18T05:06:17.718Z,14
2017-02-18T05:16:17.840Z,15
2017-02-18T05:26:17.701Z,14
2017-02-18T05:36:17.859Z,13
2017-02-18T05:46:17.859Z,11
2017-02-18T05:56:18.038Z,13
2017-02-18T06:06:17.839Z,11
2017-02-18T06:16:17.831Z,12
2017-02-18T06:26:17.858Z,11
2017-02-18T06:36:17.883Z,11
2017-02-18T06:46:18.097Z,10
2017-02-18T06:56:17.702Z,10
2017-02-18T07:06:17.789Z,11
2017-02-18T07:16:17.788Z,10
2017-02-18T07:26:17.948Z,11
2017-02-18T07:36:17.782Z,10
2017-02-18T07:46:17.791Z,10
2017-02-18T07:56:17.975Z,9
2017-02-18T08:06:17.922Z,10
2017-02-18T08:16:17.777Z,10
2017-02-18T08:26:17.840Z,11
2017-02-18T08:36:17.834Z,11
2017-02-18T08:46:17.788Z,11
2017-02-18T08:56:17.857Z,12
2017-02-18T09:06:17.818Z,11
2017-02-18T09:16:17.912Z,12
2017-02-18T09:26:17.855Z,12
2017-02-18T09:36:17.840Z,10
2017-02-18T09:46:17.906Z,11
2017-02-18T09:56:17.887Z,10
2017-02-18T10:06:17.907Z,11
2017-02-18T10:16:17.901Z,11
2017-02-18T10:26:17.932Z,11
2017-02-18T10:36:17.965Z,12
2017-02-18T10:46:17.961Z,11
2017-02-18T10:56:17.947Z,12
2017-02-18T11:06:18.043Z,10
2017-02-18T11:16:17.988Z,10
2017-02-18T11:26:17.933Z,8
2017-02-18T11:36:17.943Z,6
2017-02-18T11:46:18.279Z,8
2017-02-18T11:56:18.788Z,5
2017-02-18T12:06:18.061Z,5
2017-02-18T12:16:18.301Z,5
2017-02-18T12:26:18.163Z,5
2017-02-18T12:36:22.511Z,4
2017-02-18T12:46:18.379Z,4
2017-02-18T12:56:18.074Z,4
2017-02-18T13:06:18.053Z,4
2017-02-18T13:16:18.902Z,4
2017-02-18T13:26:18.125Z,4
2017-02-18T13:36:22.065Z,4
2017-02-18T13:46:19.691Z,4
2017-02-18T13:56:23.896Z,5
2017-02-18T14:06:18.148Z,5
2017-02-18T14:26:20.274Z,5
2017-02-18T14:36:34.178Z,5
2017-02-18T14:46:19.161Z,5
2017-02-18T14:56:35.342Z,5
2017-02-18T15:06:29.655Z,5
2017-02-18T15:36:30.467Z,7
2017-02-18T15:46:28.165Z,8
2017-02-18T15:56:25.528Z,7
2017-02-18T16:16:54.588Z,7
2017-02-18T16:26:34.565Z,8
2017-02-18T16:36:41.199Z,7
2017-02-18T16:56:30.310Z,7
2017-02-18T17:06:32.468Z,9
2017-02-18T17:17:02.518Z,9
2017-02-18T17:26:41.765Z,10
2017-02-18T17:36:27.221Z,9
2017-02-18T17:46:18.291Z,9
2017-02-18T17:56:53.454Z,10
2017-02-18T18:06:58.044Z,11
2017-02-18T18:26:29.573Z,13
2017-02-18T18:36:18.329Z,13
2017-02-18T18:46:57.836Z,14
2017-02-18T18:56:19.158Z,17
2017-02-18T19:16:18.388Z,20
2017-02-18T19:26:31.812Z,18
2017-02-18T19:36:34.286Z,20
2017-02-18T19:46:23.629Z,20
2017-02-18T19:56:30.525Z,19
2017-02-18T20:06:47.404Z,22
2017-02-18T20:16:21.092Z,24
2017-02-18T20:26:32.425Z,27
2017-02-18T20:36:44.039Z,23
2017-02-18T20:46:24.177Z,27
2017-02-18T20:56:24.715Z,28
2017-02-18T21:16:42.828Z,33
2017-02-18T21:26:30.224Z,34
2017-02-18T21:36:28.147Z,31
2017-02-18T21:46:26.804Z,33
2017-02-18T21:56:18.607Z,35
2017-02-18T22:06:25.487Z,38
2017-02-18T22:16:21.162Z,38
2017-02-18T22:26:19.328Z,38
2017-02-18T22:36:20.048Z,38
2017-02-18T22:46:19.328Z,40
2017-02-18T22:56:18.890Z,39
2017-02-18T23:06:18.825Z,39
2017-02-18T23:16:19.005Z,38
2017-02-18T23:26:18.889Z,41
2017-02-18T23:36:18.723Z,37
2017-02-18T23:46:20.692Z,36
2017-02-18T23:56:18.605Z,36
